Terminal Aerodrome Forecast
Issued by NWS

Home | Current Version | Previous Version | Text Only | Print | Product List | Glossary On
Versions: 1 2 3 4 5 6 7 8 9 10 11 12 13 14 15 16
000
FTUS45 KTFX 260500
TAFLWT
TAF
KLWT 260528Z 2606/2706 25014KT P6SM SCT120 BKN150
     FM261000 24010KT P6SM SCT150
     FM261900 23015KT P6SM SCT150=

USA.gov is the U.S. government's official web portal to all federal, state and local government web resources and services.